aviador You're here:

KHBI Decoded Metar

ASHEBORO MUNI in NC, USA
Report Time2017-05-30 11:00:00
UTC Time2017-05-30 11:11:45
Flight Rules vfr VFR
WindCalm
Visibility9999 m
Phenomena:N/A
Clouds:Scattered 110 Hf
CeilingNone
Temp19°C (ISA +5)
Dew Point19°C (100% RH)
QNH1019 hPa
Density Alt1,391 ft
Elevation673 ft
Report Wrong Elevation
Raw Report
KHBI 301100Z AUTO 00000KT 10SM SCT110 19/19 A3008 RMK AO2
T01870187=

Extra information for KHBI:More info

Metar Taf Metar & Taf Last 4 Metars F.Rules Stats Wind Profile Meteogram Temp Stats Airport Information Weather charts Add Link Nearby VenuesMetar ALERT Operation Metar Decoded Social comments

AIRNAV info for KHBI